createdAt,value
2019-05-07T00:00:32.870Z,4.67
2019-05-07T00:03:03.295Z,5.22
2019-05-07T00:05:33.178Z,6.33
2019-05-07T00:08:08.400Z,5.28
2019-05-07T00:10:37.825Z,5.55
2019-05-07T00:13:07.510Z,6.28
2019-05-07T00:15:36.107Z,6.65
2019-05-07T00:18:04.826Z,5.58
2019-05-07T00:20:33.575Z,5.50
2019-05-07T00:23:05.763Z,6.40
2019-05-07T00:25:34.638Z,5.35
2019-05-07T00:28:06.290Z,5.60
2019-05-07T00:30:34.957Z,5.17
2019-05-07T00:33:03.946Z,4.92
2019-05-07T00:35:42.796Z,3.33
2019-05-07T00:38:15.898Z,3.52
2019-05-07T00:40:47.308Z,3.37
2019-05-07T00:43:17.612Z,2.85
2019-05-07T00:45:52.833Z,2.65
2019-05-07T00:48:23.280Z,2.60
2019-05-07T00:50:53.209Z,4.05
2019-05-07T00:53:23.640Z,5.15
2019-05-07T00:55:52.686Z,6.55
2019-05-07T00:58:26.288Z,6.28
2019-05-07T01:00:53.165Z,5.92
2019-05-07T01:03:22.299Z,4.87
2019-05-07T01:05:52.753Z,4.15
2019-05-07T01:08:22.513Z,3.85
2019-05-07T01:10:52.952Z,3.10
2019-05-07T01:13:23.381Z,3.10
2019-05-07T01:15:53.166Z,3.27
2019-05-07T01:18:23.376Z,4.22
2019-05-07T01:20:53.253Z,4.30
2019-05-07T01:23:23.040Z,4.55
2019-05-07T01:25:52.669Z,3.95
2019-05-07T01:28:22.340Z,4.10
2019-05-07T01:30:52.792Z,4.90
2019-05-07T01:33:35.498Z,5.10
2019-05-07T01:36:05.908Z,5.92
2019-05-07T01:38:35.420Z,5.58
2019-05-07T01:41:05.343Z,4.17
2019-05-07T01:43:34.286Z,3.17
2019-05-07T01:46:06.172Z,3.67
2019-05-07T01:48:34.992Z,4.80
2019-05-07T01:51:05.277Z,5.03
2019-05-07T01:53:34.371Z,4.10
2019-05-07T01:56:05.724Z,4.00
2019-05-07T01:58:34.464Z,3.83
2019-05-07T02:01:03.416Z,2.75
2019-05-07T02:03:33.741Z,2.60
2019-05-07T02:06:04.438Z,3.05
2019-05-07T02:08:58.249Z,5.35
2019-05-07T02:11:34.643Z,5.37
2019-05-07T02:14:08.390Z,3.58
2019-05-07T02:16:37.124Z,2.77
2019-05-07T02:19:05.969Z,3.50
2019-05-07T02:21:35.759Z,3.45
2019-05-07T02:24:04.401Z,2.80
2019-05-07T02:26:33.160Z,4.12
2019-05-07T02:29:02.699Z,4.87
2019-05-07T02:31:34.851Z,4.10
2019-05-07T02:34:03.612Z,3.77
2019-05-07T02:36:33.999Z,4.10
2019-05-07T02:39:23.744Z,3.37
2019-05-07T02:41:53.899Z,3.02
2019-05-07T02:44:23.243Z,2.58
2019-05-07T02:46:59.414Z,2.67
2019-05-07T02:49:32.961Z,3.52
2019-05-07T02:52:04.858Z,3.92
2019-05-07T02:54:35.439Z,3.87
2019-05-07T02:57:04.822Z,3.58
2019-05-07T02:59:33.823Z,3.70
2019-05-07T03:02:03.783Z,3.85
2019-05-07T03:04:33.491Z,3.67
2019-05-07T03:07:03.872Z,3.17
2019-05-07T03:09:33.328Z,2.70
2019-05-07T03:12:06.412Z,2.92
2019-05-07T03:14:37.092Z,3.85
2019-05-07T03:17:05.952Z,4.60
2019-05-07T03:19:36.485Z,4.33
2019-05-07T03:22:05.280Z,3.27
2019-05-07T03:24:38.628Z,3.67
2019-05-07T03:27:07.411Z,4.33
2019-05-07T03:29:37.668Z,3.87
2019-05-07T03:32:16.108Z,4.10
2019-05-07T03:35:07.996Z,3.40
2019-05-07T03:37:37.171Z,3.45
2019-05-07T03:40:08.876Z,3.70
2019-05-07T03:42:38.055Z,2.58
2019-05-07T03:45:13.715Z,2.62
2019-05-07T03:47:44.218Z,2.62
2019-05-07T03:50:14.678Z,1.92
2019-05-07T03:52:43.827Z,2.95
2019-05-07T03:55:14.519Z,3.87
2019-05-07T03:57:43.931Z,3.60
2019-05-07T04:00:13.815Z,3.90
2019-05-07T04:02:43.693Z,3.87
2019-05-07T04:05:14.209Z,3.70
2019-05-07T04:07:43.442Z,4.33
2019-05-07T04:10:14.743Z,4.35
2019-05-07T04:12:44.410Z,4.15
2019-05-07T04:15:16.676Z,3.37
2019-05-07T04:17:44.395Z,3.67
2019-05-07T04:20:13.819Z,3.85
2019-05-07T04:22:43.400Z,4.22
2019-05-07T04:25:34.557Z,4.58
2019-05-07T04:28:07.774Z,4.10
2019-05-07T04:30:37.251Z,4.40
2019-05-07T04:33:07.681Z,5.17
2019-05-07T04:35:38.086Z,5.78
2019-05-07T04:38:07.567Z,4.67
2019-05-07T04:40:36.573Z,4.12
2019-05-07T04:43:05.788Z,3.42
2019-05-07T04:45:34.550Z,3.72
2019-05-07T04:48:03.575Z,5.03
2019-05-07T04:50:43.192Z,4.00
2019-05-07T04:53:07.800Z,3.67
2019-05-07T04:55:37.047Z,4.28
2019-05-07T04:58:08.920Z,4.55
2019-05-07T05:00:36.171Z,5.42
2019-05-07T05:03:09.516Z,5.03
2019-05-07T05:05:38.104Z,5.12
2019-05-07T05:08:06.991Z,5.05
2019-05-07T05:10:36.301Z,5.15
2019-05-07T05:13:08.289Z,6.53
2019-05-07T05:15:36.915Z,5.90
2019-05-07T05:18:12.981Z,6.20
2019-05-07T05:20:49.264Z,6.17
2019-05-07T05:23:28.584Z,6.60
2019-05-07T05:25:57.382Z,8.05
2019-05-07T05:28:26.171Z,6.70
2019-05-07T05:30:59.342Z,6.60
2019-05-07T05:33:28.141Z,7.00
2019-05-07T05:35:57.238Z,6.40
2019-05-07T05:38:27.253Z,7.30
2019-05-07T05:40:55.897Z,6.05
2019-05-07T05:43:28.575Z,6.97
2019-05-07T05:45:58.934Z,6.28
2019-05-07T05:48:27.922Z,5.55
2019-05-07T05:51:12.687Z,7.22
2019-05-07T05:53:58.060Z,7.22
2019-05-07T05:56:32.398Z,6.50
2019-05-07T05:59:25.265Z,6.40
2019-05-07T06:02:06.382Z,6.45
2019-05-07T06:04:46.680Z,6.15
2019-05-07T06:07:17.375Z,6.80
2019-05-07T06:09:48.655Z,5.42
2019-05-07T06:12:22.204Z,6.35
2019-05-07T06:14:58.828Z,6.72
2019-05-07T06:17:37.900Z,5.47
2019-05-07T06:20:27.856Z,6.00
2019-05-07T06:23:14.551Z,5.58
2019-05-07T06:25:44.917Z,5.10
2019-05-07T06:28:13.670Z,5.55
2019-05-07T06:30:42.842Z,5.50
2019-05-07T06:33:12.447Z,4.67
2019-05-07T06:35:42.938Z,4.45
2019-05-07T06:38:15.368Z,4.62
2019-05-07T06:40:48.359Z,5.20
2019-05-07T06:43:18.943Z,5.78
2019-05-07T06:45:58.301Z,4.37
2019-05-07T06:48:41.381Z,4.70
2019-05-07T06:50:58.330Z,3.35
2019-05-07T06:53:33.299Z,4.55
2019-05-07T06:56:08.523Z,4.08
2019-05-07T06:58:38.766Z,3.87
2019-05-07T07:01:12.353Z,3.25
2019-05-07T07:03:55.151Z,3.35
2019-05-07T07:06:25.579Z,3.45
2019-05-07T07:08:55.962Z,3.35
2019-05-07T07:11:35.028Z,3.60
2019-05-07T07:14:08.320Z,2.87
2019-05-07T07:16:37.207Z,2.80
2019-05-07T07:19:05.985Z,2.17
2019-05-07T07:21:34.725Z,2.70
2019-05-07T07:24:03.972Z,2.50
2019-05-07T07:26:36.874Z,3.02
2019-05-07T07:31:36.679Z,2.52
2019-05-07T07:34:05.499Z,2.58
2019-05-07T07:36:36.072Z,3.33
2019-05-07T07:39:07.371Z,3.42
2019-05-07T07:41:38.115Z,3.35
2019-05-07T07:44:07.244Z,2.75
2019-05-07T07:46:36.256Z,2.08
2019-05-07T07:49:11.012Z,2.20
2019-05-07T07:51:41.173Z,2.75
2019-05-07T07:54:05.798Z,2.40
2019-05-07T07:56:48.905Z,2.22
2019-05-07T07:59:16.565Z,2.33
2019-05-07T08:01:47.415Z,2.62
2019-05-07T08:04:16.248Z,2.12
2019-05-07T08:06:46.269Z,2.20
2019-05-07T08:09:15.556Z,2.25
2019-05-07T08:11:44.668Z,2.15
2019-05-07T08:14:13.405Z,1.70
2019-05-07T08:16:43.047Z,2.85
2019-05-07T08:19:21.805Z,2.85
2019-05-07T08:21:42.274Z,2.10
2019-05-07T08:24:12.210Z,2.77
2019-05-07T08:26:42.845Z,2.50
2019-05-07T08:29:12.007Z,2.50
2019-05-07T08:31:54.813Z,2.87
2019-05-07T08:34:25.227Z,2.75
2019-05-07T08:36:54.110Z,2.00
2019-05-07T08:39:25.108Z,1.77
2019-05-07T08:41:53.622Z,1.80
2019-05-07T08:44:26.938Z,2.35
2019-05-07T08:47:03.610Z,2.12
2019-05-07T08:49:39.317Z,2.20
2019-05-07T08:52:03.679Z,3.40
2019-05-07T08:54:33.291Z,2.22
2019-05-07T08:57:02.716Z,2.20
2019-05-07T08:59:32.970Z,2.58
2019-05-07T09:02:02.955Z,2.10
2019-05-07T09:04:32.755Z,2.40
2019-05-07T09:07:05.358Z,2.62
2019-05-07T09:09:34.549Z,2.12
2019-05-07T09:12:03.299Z,1.92
2019-05-07T09:14:32.319Z,2.10
2019-05-07T09:17:02.478Z,1.77
2019-05-07T09:19:46.950Z,2.33
2019-05-07T09:22:06.571Z,2.52
2019-05-07T09:24:35.316Z,2.42
2019-05-07T09:27:09.021Z,2.47
2019-05-07T09:29:52.074Z,2.33
2019-05-07T09:32:22.823Z,3.20
2019-05-07T09:34:53.252Z,2.67
2019-05-07T09:37:23.768Z,2.75
2019-05-07T09:39:52.444Z,2.72
2019-05-07T09:42:22.571Z,3.02
2019-05-07T09:44:52.908Z,2.95
2019-05-07T09:47:22.104Z,2.98
2019-05-07T09:50:04.307Z,3.90
2019-05-07T09:52:22.830Z,3.87
2019-05-07T09:54:52.395Z,3.87
2019-05-07T09:57:28.322Z,4.03
2019-05-07T09:59:53.044Z,3.72
2019-05-07T10:02:23.427Z,3.90
2019-05-07T10:04:52.750Z,3.83
2019-05-07T10:07:22.334Z,3.90
2019-05-07T10:09:52.320Z,3.80
2019-05-07T10:12:26.188Z,2.80
2019-05-07T10:14:55.027Z,2.83
2019-05-07T10:17:25.730Z,2.30
2019-05-07T10:19:54.559Z,3.30
2019-05-07T10:22:23.342Z,3.20
2019-05-07T10:24:52.432Z,3.00
2019-05-07T10:27:22.396Z,3.02
2019-05-07T10:29:53.006Z,3.37
2019-05-07T10:32:21.842Z,3.50
2019-05-07T10:34:52.408Z,3.80
2019-05-07T10:37:20.955Z,3.47
2019-05-07T10:39:51.993Z,3.50
2019-05-07T10:42:22.606Z,3.55
2019-05-07T10:45:10.494Z,3.55
2019-05-07T10:47:56.499Z,3.80
2019-05-07T10:50:37.916Z,4.05
2019-05-07T10:52:57.456Z,3.60
2019-05-07T10:55:26.151Z,3.55
2019-05-07T10:57:54.830Z,3.40
2019-05-07T11:00:25.533Z,2.72
2019-05-07T11:02:54.710Z,2.70
2019-05-07T11:05:23.449Z,3.58
2019-05-07T11:07:53.877Z,4.72
2019-05-07T11:10:22.606Z,4.00
2019-05-07T11:12:51.720Z,3.45
2019-05-07T11:15:22.082Z,3.10
2019-05-07T11:17:59.822Z,2.83
2019-05-07T11:20:28.917Z,3.70
2019-05-07T11:22:57.908Z,3.33
2019-05-07T11:25:27.038Z,3.70
2019-05-07T11:27:55.803Z,3.67
2019-05-07T11:30:25.095Z,3.40
2019-05-07T11:32:53.905Z,3.95
2019-05-07T11:35:23.050Z,3.83
2019-05-07T11:37:52.223Z,3.60
2019-05-07T11:40:22.901Z,3.80
2019-05-07T11:43:09.766Z,3.60
2019-05-07T11:45:49.181Z,3.37
2019-05-07T11:48:18.975Z,3.55
2019-05-07T11:51:01.491Z,3.72
2019-05-07T11:53:24.185Z,4.35
2019-05-07T11:55:52.895Z,3.95
2019-05-07T11:58:21.971Z,3.50
2019-05-07T12:01:07.151Z,3.72
2019-05-07T12:03:35.747Z,4.40
2019-05-07T12:06:12.452Z,4.12
2019-05-07T12:08:45.908Z,4.08
2019-05-07T12:11:11.899Z,3.60
2019-05-07T12:13:42.783Z,4.00
2019-05-07T12:16:14.093Z,3.75
2019-05-07T12:18:43.069Z,4.22
2019-05-07T12:21:20.792Z,3.67
2019-05-07T12:23:42.362Z,3.87
2019-05-07T12:26:12.934Z,3.70
2019-05-07T12:28:52.176Z,3.62
2019-05-07T12:31:22.811Z,4.60
2019-05-07T12:34:05.233Z,3.40
2019-05-07T12:36:34.043Z,4.35
2019-05-07T12:39:03.030Z,3.80
2019-05-07T12:41:34.435Z,3.52
2019-05-07T12:44:06.435Z,3.58
2019-05-07T12:46:35.513Z,3.87
2019-05-07T12:49:04.744Z,3.40
2019-05-07T12:51:37.668Z,3.83
2019-05-07T12:54:25.774Z,3.60
2019-05-07T12:56:54.771Z,3.50
2019-05-07T12:59:23.893Z,3.00
2019-05-07T13:02:18.347Z,3.52
2019-05-07T13:04:37.079Z,3.60
2019-05-07T13:07:16.368Z,3.72
2019-05-07T13:09:45.569Z,3.20
2019-05-07T13:12:14.339Z,3.42
2019-05-07T13:14:42.927Z,3.50
2019-05-07T13:17:12.087Z,3.77
2019-05-07T13:19:41.981Z,3.40
2019-05-07T13:22:12.400Z,3.22
2019-05-07T13:24:42.578Z,3.50
2019-05-07T13:27:13.925Z,3.80
2019-05-07T13:29:44.900Z,4.25
2019-05-07T13:32:16.015Z,3.25
2019-05-07T13:34:45.926Z,4.37
2019-05-07T13:37:19.239Z,4.12
2019-05-07T13:39:52.759Z,3.72
2019-05-07T13:42:41.977Z,3.80
2019-05-07T13:45:22.446Z,3.75
2019-05-07T13:47:54.285Z,3.75
2019-05-07T13:50:23.040Z,4.40
2019-05-07T13:52:52.079Z,4.20
2019-05-07T13:55:21.842Z,3.62
2019-05-07T13:57:52.396Z,4.33
2019-05-07T14:00:25.958Z,3.58
2019-05-07T14:02:55.042Z,4.15
2019-05-07T14:05:23.775Z,3.75
2019-05-07T14:07:52.512Z,4.10
2019-05-07T14:10:21.369Z,3.72
2019-05-07T14:12:51.996Z,3.80
2019-05-07T14:15:20.485Z,4.28
2019-05-07T14:17:49.700Z,4.70
2019-05-07T14:20:18.875Z,4.22
2019-05-07T14:22:47.882Z,3.98
2019-05-07T14:25:16.607Z,4.80
2019-05-07T14:27:45.607Z,4.25
2019-05-07T14:30:14.615Z,5.58
2019-05-07T14:32:44.943Z,4.85
2019-05-07T14:35:22.702Z,5.30
2019-05-07T14:38:08.819Z,4.85
2019-05-07T14:40:37.463Z,4.58
2019-05-07T14:43:16.919Z,5.00
2019-05-07T14:45:45.670Z,6.10
2019-05-07T14:48:14.415Z,5.65
2019-05-07T14:50:44.903Z,5.67
2019-05-07T14:53:15.839Z,5.45
2019-05-07T14:55:44.567Z,6.12
2019-05-07T14:58:13.344Z,6.05
2019-05-07T15:00:42.654Z,6.40
2019-05-07T15:03:12.428Z,6.62
2019-05-07T15:05:42.219Z,6.45
2019-05-07T15:08:14.141Z,7.25
2019-05-07T15:10:41.907Z,7.10
2019-05-07T15:13:12.570Z,6.67
2019-05-07T15:15:41.552Z,7.47
2019-05-07T15:18:17.951Z,7.20
2019-05-07T15:20:47.116Z,7.30
2019-05-07T15:23:17.933Z,7.25
2019-05-07T15:25:47.874Z,7.92
2019-05-07T15:28:16.931Z,7.53
2019-05-07T15:30:47.211Z,7.40
2019-05-07T15:33:15.934Z,7.47
2019-05-07T15:35:45.644Z,7.95
2019-05-07T15:38:14.388Z,8.23
2019-05-07T15:40:43.090Z,7.80
2019-05-07T15:43:12.888Z,9.08
2019-05-07T15:45:41.717Z,8.83
2019-05-07T15:48:12.544Z,9.25
2019-05-07T15:50:42.910Z,9.30
2019-05-07T15:53:19.457Z,10.05
2019-05-07T15:55:48.464Z,9.13
2019-05-07T15:58:17.669Z,9.68
2019-05-07T16:00:46.679Z,9.18
2019-05-07T16:03:17.659Z,10.43
2019-05-07T16:05:46.664Z,10.15
2019-05-07T16:08:17.052Z,10.80
2019-05-07T16:10:45.710Z,10.78
2019-05-07T16:13:22.708Z,10.95
2019-05-07T16:15:52.884Z,10.98
2019-05-07T16:18:23.929Z,11.05
2019-05-07T16:20:52.555Z,10.68
2019-05-07T16:23:22.058Z,10.82
2019-05-07T16:25:52.674Z,10.15
2019-05-07T16:28:21.918Z,9.78
2019-05-07T16:30:52.096Z,10.48
2019-05-07T16:33:20.865Z,9.60
2019-05-07T16:35:49.471Z,9.25
2019-05-07T16:38:18.243Z,9.53
2019-05-07T16:40:47.191Z,9.30
2019-05-07T16:43:15.983Z,10.03
2019-05-07T16:45:44.995Z,9.65
2019-05-07T16:48:14.131Z,9.53
2019-05-07T16:50:42.700Z,9.88
2019-05-07T16:53:13.412Z,10.03
2019-05-07T16:55:43.064Z,10.58
2019-05-07T16:58:20.686Z,9.90
2019-05-07T17:01:03.502Z,9.43
2019-05-07T17:03:36.918Z,10.40
2019-05-07T17:06:12.466Z,10.28
2019-05-07T17:08:45.828Z,11.03
2019-05-07T17:11:14.885Z,9.05
2019-05-07T17:13:43.562Z,11.33
2019-05-07T17:16:12.430Z,10.75
2019-05-07T17:18:41.031Z,11.15
2019-05-07T17:21:12.935Z,10.85
2019-05-07T17:23:44.608Z,10.47
2019-05-07T17:26:12.002Z,12.95
2019-05-07T17:28:42.569Z,12.43
2019-05-07T17:31:12.396Z,12.10
2019-05-07T17:33:42.464Z,12.53
2019-05-07T17:36:12.185Z,13.13
2019-05-07T17:38:42.883Z,12.82
2019-05-07T17:41:19.643Z,12.98
2019-05-07T17:43:41.907Z,13.35
2019-05-07T17:46:12.241Z,12.63
2019-05-07T17:48:42.664Z,14.47
2019-05-07T17:51:13.061Z,12.65
2019-05-07T17:53:50.415Z,12.82
2019-05-07T17:56:12.791Z,12.98
2019-05-07T17:58:42.640Z,13.98
2019-05-07T18:01:11.842Z,13.22
2019-05-07T18:03:42.770Z,11.95
2019-05-07T18:06:12.507Z,13.45
2019-05-07T18:08:41.475Z,12.55
2019-05-07T18:11:18.566Z,12.70
2019-05-07T18:13:42.175Z,12.43
2019-05-07T18:16:13.377Z,12.47
2019-05-07T18:18:43.197Z,12.78
2019-05-07T18:21:12.592Z,12.65
2019-05-07T18:23:42.393Z,12.53
2019-05-07T18:26:28.078Z,13.35
2019-05-07T18:28:56.035Z,13.18
2019-05-07T18:31:26.348Z,13.68
2019-05-07T18:33:59.665Z,13.38
2019-05-07T18:36:28.799Z,13.85
2019-05-07T18:38:57.558Z,13.25
2019-05-07T18:41:26.555Z,13.80
2019-05-07T18:44:08.728Z,14.28
2019-05-07T18:46:28.591Z,14.07
2019-05-07T18:48:57.246Z,13.13
2019-05-07T18:51:25.999Z,13.88
2019-05-07T18:53:54.670Z,12.47
2019-05-07T18:56:23.393Z,13.30
2019-05-07T18:58:52.205Z,14.13
2019-05-07T19:01:25.661Z,12.68
2019-05-07T19:03:55.293Z,13.20
2019-05-07T19:06:24.955Z,13.35
2019-05-07T19:08:53.910Z,13.72
2019-05-07T19:11:23.091Z,13.38
2019-05-07T19:13:52.521Z,12.60
2019-05-07T19:16:23.029Z,12.80
2019-05-07T19:18:51.861Z,14.15
2019-05-07T19:21:22.384Z,13.05
2019-05-07T19:23:52.985Z,12.73
2019-05-07T19:26:22.169Z,12.47
2019-05-07T19:28:50.995Z,14.70
2019-05-07T19:31:21.890Z,15.23
2019-05-07T19:33:53.000Z,12.45
2019-05-07T19:36:22.431Z,14.87
2019-05-07T19:38:52.604Z,13.85
2019-05-07T19:41:26.263Z,14.63
2019-05-07T19:43:55.111Z,14.53
2019-05-07T19:46:23.921Z,13.80
2019-05-07T19:48:57.839Z,14.45
2019-05-07T19:51:27.846Z,14.15
2019-05-07T19:53:57.158Z,13.98
2019-05-07T19:56:26.112Z,14.43
2019-05-07T19:58:56.751Z,13.30
2019-05-07T20:01:27.130Z,14.78
2019-05-07T20:03:55.897Z,14.65
2019-05-07T20:06:24.873Z,14.55
2019-05-07T20:08:53.972Z,14.45
2019-05-07T20:11:27.390Z,17.02
2019-05-07T20:13:56.036Z,14.90
2019-05-07T20:16:25.083Z,15.50
2019-05-07T20:18:53.706Z,13.50
2019-05-07T20:21:23.007Z,15.98
2019-05-07T20:23:52.708Z,15.65
2019-05-07T20:26:23.101Z,15.65
2019-05-07T20:28:52.591Z,15.40
2019-05-07T20:31:22.763Z,14.90
2019-05-07T20:33:53.039Z,15.20
2019-05-07T20:36:21.908Z,15.43
2019-05-07T20:38:52.137Z,14.70
2019-05-07T20:41:23.081Z,13.72
2019-05-07T20:43:52.372Z,16.10
2019-05-07T20:46:21.103Z,15.20
2019-05-07T20:48:49.806Z,14.25
2019-05-07T20:51:18.767Z,14.50
2019-05-07T20:53:54.483Z,13.22
2019-05-07T20:56:25.132Z,13.58
2019-05-07T20:58:54.704Z,14.58
2019-05-07T21:01:24.708Z,14.83
2019-05-07T21:03:53.363Z,13.93
2019-05-07T21:06:22.660Z,16.40
2019-05-07T21:08:51.356Z,17.30
2019-05-07T21:11:22.450Z,16.90
2019-05-07T21:13:52.287Z,16.57
2019-05-07T21:16:22.084Z,16.37
2019-05-07T21:18:52.823Z,17.32
2019-05-07T21:21:21.944Z,16.50
2019-05-07T21:23:52.756Z,15.78
2019-05-07T21:26:22.451Z,15.75
2019-05-07T21:28:52.846Z,16.95
2019-05-07T21:31:22.993Z,16.25
2019-05-07T21:33:52.376Z,17.25
2019-05-07T21:36:22.794Z,16.25
2019-05-07T21:38:52.499Z,16.15
2019-05-07T21:41:22.661Z,17.75
2019-05-07T21:43:52.808Z,16.82
2019-05-07T21:46:22.364Z,16.55
2019-05-07T21:48:51.833Z,17.55
2019-05-07T21:51:22.852Z,18.07
2019-05-07T21:53:54.367Z,16.62
2019-05-07T21:56:24.926Z,17.60
2019-05-07T21:58:55.339Z,15.48
2019-05-07T22:01:29.746Z,18.00
2019-05-07T22:03:58.919Z,17.02
2019-05-07T22:06:27.842Z,17.62
2019-05-07T22:08:56.895Z,16.95
2019-05-07T22:11:25.832Z,17.48
2019-05-07T22:13:54.781Z,17.12
2019-05-07T22:16:24.119Z,16.90
2019-05-07T22:18:52.740Z,17.07
2019-05-07T22:21:21.396Z,18.07
2019-05-07T22:23:52.156Z,18.45
2019-05-07T22:26:25.547Z,18.17
2019-05-07T22:28:53.828Z,18.50
2019-05-07T22:31:28.453Z,18.02
2019-05-07T22:33:59.394Z,17.23
2019-05-07T22:36:34.123Z,18.00
2019-05-07T22:39:02.798Z,18.23
2019-05-07T22:41:31.947Z,18.20
2019-05-07T22:44:02.528Z,17.92
2019-05-07T22:46:32.788Z,19.82
2019-05-07T22:49:03.146Z,19.70
2019-05-07T22:51:31.981Z,20.48
2019-05-07T22:54:04.175Z,18.77
2019-05-07T22:56:49.002Z,20.30
2019-05-07T22:59:18.277Z,18.23
2019-05-07T23:01:47.020Z,20.27
2019-05-07T23:04:16.179Z,20.40
2019-05-07T23:06:44.763Z,18.98
2019-05-07T23:09:13.552Z,19.75
2019-05-07T23:11:42.255Z,20.65
2019-05-07T23:14:11.830Z,20.50
2019-05-07T23:16:42.926Z,22.30
2019-05-07T23:19:13.928Z,21.07
2019-05-07T23:21:42.565Z,20.23
2019-05-07T23:24:11.699Z,21.55
2019-05-07T23:26:48.137Z,21.15
2019-05-07T23:29:11.834Z,21.05
2019-05-07T23:31:40.943Z,20.37
2019-05-07T23:34:12.466Z,22.82
2019-05-07T23:36:42.197Z,24.35
2019-05-07T23:39:12.727Z,24.00
2019-05-07T23:41:46.421Z,24.67
2019-05-07T23:44:19.561Z,24.55
2019-05-07T23:46:48.656Z,24.52
2019-05-07T23:49:17.473Z,24.50
2019-05-07T23:51:46.531Z,24.43
2019-05-07T23:54:15.134Z,25.90
2019-05-07T23:56:43.878Z,24.77
2019-05-07T23:59:14.983Z,26.23
